sensor_id;sensor_type;location;lat;lon;timestamp;temperature;humidity
3051;DHT22;1535;51.098;6.414;2023-04-24T00:00:46;10.20;99.90
3051;DHT22;1535;51.098;6.414;2023-04-24T00:03:14;10.10;99.90
3051;DHT22;1535;51.098;6.414;2023-04-24T00:05:41;10.00;99.90
3051;DHT22;1535;51.098;6.414;2023-04-24T00:08:11;9.90;99.90
3051;DHT22;1535;51.098;6.414;2023-04-24T00:10:38;9.80;99.90
3051;DHT22;1535;51.098;6.414;2023-04-24T00:13:05;9.80;99.90
3051;DHT22;1535;51.098;6.414;2023-04-24T00:15:33;9.80;99.90
3051;DHT22;1535;51.098;6.414;2023-04-24T00:18:00;9.80;99.90
3051;DHT22;1535;51.098;6.414;2023-04-24T00:20:28;9.80;99.90
3051;DHT22;1535;51.098;6.414;2023-04-24T00:22:55;9.80;99.90
3051;DHT22;1535;51.098;6.414;2023-04-24T00:25:24;9.80;99.90
3051;DHT22;1535;51.098;6.414;2023-04-24T00:27:50;9.80;99.90
3051;DHT22;1535;51.098;6.414;2023-04-24T00:30:18;9.90;99.90
3051;DHT22;1535;51.098;6.414;2023-04-24T00:32:45;9.90;99.90
3051;DHT22;1535;51.098;6.414;2023-04-24T00:35:11;9.90;99.90
3051;DHT22;1535;51.098;6.414;2023-04-24T00:37:38;9.90;99.90
3051;DHT22;1535;51.098;6.414;2023-04-24T00:40:06;9.80;99.90
3051;DHT22;1535;51.098;6.414;2023-04-24T00:42:35;9.80;99.90
3051;DHT22;1535;51.098;6.414;2023-04-24T00:45:02;9.70;99.90
3051;DHT22;1535;51.098;6.414;2023-04-24T00:47:29;9.60;99.90
3051;DHT22;1535;51.098;6.414;2023-04-24T00:49:56;9.60;99.90
3051;DHT22;1535;51.098;6.414;2023-04-24T00:52:23;9.60;99.90
3051;DHT22;1535;51.098;6.414;2023-04-24T00:54:50;9.70;99.90
3051;DHT22;1535;51.098;6.414;2023-04-24T00:57:18;9.70;99.90
3051;DHT22;1535;51.098;6.414;2023-04-24T00:59:46;9.60;99.90
3051;DHT22;1535;51.098;6.414;2023-04-24T01:02:13;9.50;99.90
3051;DHT22;1535;51.098;6.414;2023-04-24T01:04:41;9.50;99.90
3051;DHT22;1535;51.098;6.414;2023-04-24T01:07:08;9.30;99.90
3051;DHT22;1535;51.098;6.414;2023-04-24T01:09:38;9.40;99.90
3051;DHT22;1535;51.098;6.414;2023-04-24T01:12:08;9.40;99.90
3051;DHT22;1535;51.098;6.414;2023-04-24T01:14:35;9.40;99.90
3051;DHT22;1535;51.098;6.414;2023-04-24T01:17:03;9.40;99.90
3051;DHT22;1535;51.098;6.414;2023-04-24T01:19:30;9.40;99.90
3051;DHT22;1535;51.098;6.414;2023-04-24T01:21:58;9.50;99.90
3051;DHT22;1535;51.098;6.414;2023-04-24T01:24:30;9.40;99.90
3051;DHT22;1535;51.098;6.414;2023-04-24T01:26:57;9.40;99.90
3051;DHT22;1535;51.098;6.414;2023-04-24T01:29:24;9.40;99.90
3051;DHT22;1535;51.098;6.414;2023-04-24T01:31:51;9.50;99.90
3051;DHT22;1535;51.098;6.414;2023-04-24T01:34:19;9.50;99.90
3051;DHT22;1535;51.098;6.414;2023-04-24T01:36:46;9.40;99.90
3051;DHT22;1535;51.098;6.414;2023-04-24T01:39:14;9.30;99.90
3051;DHT22;1535;51.098;6.414;2023-04-24T01:41:43;9.40;99.90
3051;DHT22;1535;51.098;6.414;2023-04-24T01:44:10;9.40;99.90
3051;DHT22;1535;51.098;6.414;2023-04-24T01:46:37;9.30;99.90
3051;DHT22;1535;51.098;6.414;2023-04-24T01:49:05;9.40;99.90
3051;DHT22;1535;51.098;6.414;2023-04-24T01:51:32;9.40;99.90
3051;DHT22;1535;51.098;6.414;2023-04-24T01:53:59;9.40;99.90
3051;DHT22;1535;51.098;6.414;2023-04-24T01:56:29;9.40;99.90
3051;DHT22;1535;51.098;6.414;2023-04-24T01:58:57;9.40;99.90
3051;DHT22;1535;51.098;6.414;2023-04-24T02:01:24;9.30;99.90
3051;DHT22;1535;51.098;6.414;2023-04-24T02:03:51;9.30;99.90
3051;DHT22;1535;51.098;6.414;2023-04-24T02:06:18;9.30;99.90
3051;DHT22;1535;51.098;6.414;2023-04-24T02:08:46;9.50;99.90
3051;DHT22;1535;51.098;6.414;2023-04-24T02:11:13;9.50;99.90
3051;DHT22;1535;51.098;6.414;2023-04-24T02:13:40;9.50;99.90
3051;DHT22;1535;51.098;6.414;2023-04-24T02:16:09;9.50;99.90
3051;DHT22;1535;51.098;6.414;2023-04-24T02:18:36;9.50;99.90
3051;DHT22;1535;51.098;6.414;2023-04-24T02:21:03;9.40;99.90
3051;DHT22;1535;51.098;6.414;2023-04-24T02:23:30;9.50;99.90
3051;DHT22;1535;51.098;6.414;2023-04-24T02:25:57;9.60;99.90
3051;DHT22;1535;51.098;6.414;2023-04-24T02:28:24;9.60;99.90
3051;DHT22;1535;51.098;6.414;2023-04-24T02:30:51;9.60;99.90
3051;DHT22;1535;51.098;6.414;2023-04-24T02:33:19;9.70;99.90
3051;DHT22;1535;51.098;6.414;2023-04-24T02:35:46;9.70;99.90
3051;DHT22;1535;51.098;6.414;2023-04-24T02:38:13;9.60;99.90
3051;DHT22;1535;51.098;6.414;2023-04-24T02:40:40;9.60;99.90
3051;DHT22;1535;51.098;6.414;2023-04-24T02:43:07;9.60;99.90
3051;DHT22;1535;51.098;6.414;2023-04-24T02:45:34;9.70;99.90
3051;DHT22;1535;51.098;6.414;2023-04-24T02:48:01;9.70;99.90
3051;DHT22;1535;51.098;6.414;2023-04-24T02:50:30;9.70;99.90
3051;DHT22;1535;51.098;6.414;2023-04-24T02:52:57;9.70;99.90
3051;DHT22;1535;51.098;6.414;2023-04-24T02:55:24;9.80;99.90
3051;DHT22;1535;51.098;6.414;2023-04-24T02:57:51;9.80;99.90
3051;DHT22;1535;51.098;6.414;2023-04-24T03:00:19;9.80;99.90
3051;DHT22;1535;51.098;6.414;2023-04-24T03:02:46;9.80;99.90
3051;DHT22;1535;51.098;6.414;2023-04-24T03:05:15;9.60;99.90
3051;DHT22;1535;51.098;6.414;2023-04-24T03:07:43;9.70;99.90
3051;DHT22;1535;51.098;6.414;2023-04-24T03:10:11;9.70;99.90
3051;DHT22;1535;51.098;6.414;2023-04-24T03:12:38;9.70;99.90
3051;DHT22;1535;51.098;6.414;2023-04-24T03:15:06;9.80;99.90
3051;DHT22;1535;51.098;6.414;2023-04-24T03:17:33;9.80;99.90
3051;DHT22;1535;51.098;6.414;2023-04-24T03:20:01;9.80;99.90
3051;DHT22;1535;51.098;6.414;2023-04-24T03:22:28;9.80;99.90
3051;DHT22;1535;51.098;6.414;2023-04-24T03:24:57;9.80;99.90
3051;DHT22;1535;51.098;6.414;2023-04-24T03:27:24;9.80;99.90
3051;DHT22;1535;51.098;6.414;2023-04-24T03:29:51;9.80;99.90
3051;DHT22;1535;51.098;6.414;2023-04-24T03:32:20;9.70;99.90
3051;DHT22;1535;51.098;6.414;2023-04-24T03:34:47;9.80;99.90
3051;DHT22;1535;51.098;6.414;2023-04-24T03:37:14;9.80;99.90
3051;DHT22;1535;51.098;6.414;2023-04-24T03:39:41;9.70;99.90
3051;DHT22;1535;51.098;6.414;2023-04-24T03:42:09;9.70;99.90
3051;DHT22;1535;51.098;6.414;2023-04-24T03:44:36;9.70;99.90
3051;DHT22;1535;51.098;6.414;2023-04-24T03:47:03;9.80;99.90
3051;DHT22;1535;51.098;6.414;2023-04-24T03:49:30;9.80;99.90
3051;DHT22;1535;51.098;6.414;2023-04-24T03:51:57;9.70;99.90
3051;DHT22;1535;51.098;6.414;2023-04-24T03:54:24;9.60;99.90
3051;DHT22;1535;51.098;6.414;2023-04-24T03:56:51;9.60;99.90
3051;DHT22;1535;51.098;6.414;2023-04-24T03:59:20;9.60;99.90
3051;DHT22;1535;51.098;6.414;2023-04-24T04:01:46;9.50;99.90
3051;DHT22;1535;51.098;6.414;2023-04-24T04:04:14;9.60;99.90
3051;DHT22;1535;51.098;6.414;2023-04-24T04:06:40;9.60;99.90
3051;DHT22;1535;51.098;6.414;2023-04-24T04:09:08;9.60;99.90
3051;DHT22;1535;51.098;6.414;2023-04-24T04:11:34;9.50;99.90
3051;DHT22;1535;51.098;6.414;2023-04-24T04:14:03;9.50;99.90
3051;DHT22;1535;51.098;6.414;2023-04-24T04:16:31;9.50;99.90
3051;DHT22;1535;51.098;6.414;2023-04-24T04:18:57;9.50;99.90
3051;DHT22;1535;51.098;6.414;2023-04-24T04:21:24;9.50;99.90
3051;DHT22;1535;51.098;6.414;2023-04-24T04:23:52;9.50;99.90
3051;DHT22;1535;51.098;6.414;2023-04-24T04:26:19;9.40;99.90
3051;DHT22;1535;51.098;6.414;2023-04-24T04:28:47;9.30;99.90
3051;DHT22;1535;51.098;6.414;2023-04-24T04:31:14;9.30;99.90
3051;DHT22;1535;51.098;6.414;2023-04-24T04:33:42;9.30;99.90
3051;DHT22;1535;51.098;6.414;2023-04-24T04:36:10;9.30;99.90
3051;DHT22;1535;51.098;6.414;2023-04-24T04:38:37;9.30;99.90
3051;DHT22;1535;51.098;6.414;2023-04-24T04:41:06;9.20;99.90
3051;DHT22;1535;51.098;6.414;2023-04-24T04:43:33;9.20;99.90
3051;DHT22;1535;51.098;6.414;2023-04-24T04:46:00;9.30;99.90
3051;DHT22;1535;51.098;6.414;2023-04-24T04:48:28;9.30;99.90
3051;DHT22;1535;51.098;6.414;2023-04-24T04:50:58;9.30;99.90
3051;DHT22;1535;51.098;6.414;2023-04-24T04:53:26;9.20;99.90
3051;DHT22;1535;51.098;6.414;2023-04-24T04:55:52;9.00;99.90
3051;DHT22;1535;51.098;6.414;2023-04-24T04:58:20;8.90;99.90
3051;DHT22;1535;51.098;6.414;2023-04-24T05:00:46;8.80;99.90
3051;DHT22;1535;51.098;6.414;2023-04-24T05:03:14;8.70;99.90
3051;DHT22;1535;51.098;6.414;2023-04-24T05:05:40;8.60;99.90
3051;DHT22;1535;51.098;6.414;2023-04-24T05:08:09;8.60;99.90
3051;DHT22;1535;51.098;6.414;2023-04-24T05:10:35;8.50;99.90
3051;DHT22;1535;51.098;6.414;2023-04-24T05:13:02;8.50;99.90
3051;DHT22;1535;51.098;6.414;2023-04-24T05:15:30;8.50;99.90
3051;DHT22;1535;51.098;6.414;2023-04-24T05:17:57;8.40;99.90
3051;DHT22;1535;51.098;6.414;2023-04-24T05:20:24;8.40;99.90
3051;DHT22;1535;51.098;6.414;2023-04-24T05:22:52;8.40;99.90
3051;DHT22;1535;51.098;6.414;2023-04-24T05:25:20;8.40;99.90
3051;DHT22;1535;51.098;6.414;2023-04-24T05:27:47;8.30;99.90
3051;DHT22;1535;51.098;6.414;2023-04-24T05:30:14;8.40;99.90
3051;DHT22;1535;51.098;6.414;2023-04-24T05:32:41;8.40;99.90
3051;DHT22;1535;51.098;6.414;2023-04-24T05:35:08;8.30;99.90
3051;DHT22;1535;51.098;6.414;2023-04-24T05:37:36;8.40;99.90
3051;DHT22;1535;51.098;6.414;2023-04-24T05:40:03;8.40;99.90
3051;DHT22;1535;51.098;6.414;2023-04-24T05:42:32;8.40;99.90
3051;DHT22;1535;51.098;6.414;2023-04-24T05:44:58;8.40;99.90
3051;DHT22;1535;51.098;6.414;2023-04-24T05:47:26;8.40;99.90
3051;DHT22;1535;51.098;6.414;2023-04-24T05:49:52;8.50;99.90
3051;DHT22;1535;51.098;6.414;2023-04-24T05:52:19;8.50;99.90
3051;DHT22;1535;51.098;6.414;2023-04-24T05:54:46;8.60;99.90
3051;DHT22;1535;51.098;6.414;2023-04-24T05:57:13;8.60;99.90
3051;DHT22;1535;51.098;6.414;2023-04-24T05:59:41;8.50;99.90
3051;DHT22;1535;51.098;6.414;2023-04-24T06:02:09;8.50;99.90
3051;DHT22;1535;51.098;6.414;2023-04-24T06:04:36;8.40;99.90
3051;DHT22;1535;51.098;6.414;2023-04-24T06:07:03;8.40;99.90
3051;DHT22;1535;51.098;6.414;2023-04-24T06:09:30;8.40;99.90
3051;DHT22;1535;51.098;6.414;2023-04-24T06:11:57;8.40;99.90
3051;DHT22;1535;51.098;6.414;2023-04-24T06:14:24;8.20;99.90
3051;DHT22;1535;51.098;6.414;2023-04-24T06:16:52;8.20;99.90
3051;DHT22;1535;51.098;6.414;2023-04-24T06:19:19;8.20;99.90
3051;DHT22;1535;51.098;6.414;2023-04-24T06:21:46;8.20;99.90
3051;DHT22;1535;51.098;6.414;2023-04-24T06:24:14;8.10;99.90
3051;DHT22;1535;51.098;6.414;2023-04-24T06:26:41;8.10;99.90
3051;DHT22;1535;51.098;6.414;2023-04-24T06:29:08;8.20;99.90
3051;DHT22;1535;51.098;6.414;2023-04-24T06:31:36;8.20;99.90
3051;DHT22;1535;51.098;6.414;2023-04-24T06:34:05;8.20;99.90
3051;DHT22;1535;51.098;6.414;2023-04-24T06:36:31;8.20;99.90
3051;DHT22;1535;51.098;6.414;2023-04-24T06:39:00;8.20;99.90
3051;DHT22;1535;51.098;6.414;2023-04-24T06:41:27;8.20;99.90
3051;DHT22;1535;51.098;6.414;2023-04-24T06:43:55;8.20;99.90
3051;DHT22;1535;51.098;6.414;2023-04-24T06:46:22;8.20;99.90
3051;DHT22;1535;51.098;6.414;2023-04-24T06:48:51;8.10;99.90
3051;DHT22;1535;51.098;6.414;2023-04-24T06:51:22;8.10;99.90
3051;DHT22;1535;51.098;6.414;2023-04-24T06:53:49;7.90;99.90
3051;DHT22;1535;51.098;6.414;2023-04-24T06:56:16;7.90;99.90
3051;DHT22;1535;51.098;6.414;2023-04-24T06:58:43;7.90;99.90
3051;DHT22;1535;51.098;6.414;2023-04-24T07:01:10;8.00;99.90
3051;DHT22;1535;51.098;6.414;2023-04-24T08:18:00;7.00;99.90
3051;DHT22;1535;51.098;6.414;2023-04-24T08:20:27;7.10;99.90
3051;DHT22;1535;51.098;6.414;2023-04-24T08:22:55;7.20;99.90
3051;DHT22;1535;51.098;6.414;2023-04-24T08:32:45;7.00;99.90
3051;DHT22;1535;51.098;6.414;2023-04-24T08:35:13;7.20;99.90
3051;DHT22;1535;51.098;6.414;2023-04-24T08:37:40;7.20;99.90
3051;DHT22;1535;51.098;6.414;2023-04-24T08:40:12;7.20;99.90
3051;DHT22;1535;51.098;6.414;2023-04-24T08:57:29;7.40;99.90
3051;DHT22;1535;51.098;6.414;2023-04-24T08:59:58;7.50;99.90
3051;DHT22;1535;51.098;6.414;2023-04-24T09:02:26;7.50;99.90
3051;DHT22;1535;51.098;6.414;2023-04-24T09:04:53;7.60;99.90
3051;DHT22;1535;51.098;6.414;2023-04-24T09:07:22;7.60;99.90
3051;DHT22;1535;51.098;6.414;2023-04-24T09:09:53;7.60;99.90
3051;DHT22;1535;51.098;6.414;2023-04-24T09:19:43;7.90;99.90
3051;DHT22;1535;51.098;6.414;2023-04-24T09:22:11;7.90;99.90
3051;DHT22;1535;51.098;6.414;2023-04-24T09:24:39;8.10;99.90
3051;DHT22;1535;51.098;6.414;2023-04-24T09:27:07;8.20;99.90
3051;DHT22;1535;51.098;6.414;2023-04-24T09:29:34;8.20;99.90
3051;DHT22;1535;51.098;6.414;2023-04-24T09:32:18;8.20;99.90
3051;DHT22;1535;51.098;6.414;2023-04-24T09:34:47;8.30;99.90
3051;DHT22;1535;51.098;6.414;2023-04-24T09:37:28;8.40;99.90
3051;DHT22;1535;51.098;6.414;2023-04-24T09:40:08;8.50;99.90
3051;DHT22;1535;51.098;6.414;2023-04-24T09:42:36;8.50;99.90
3051;DHT22;1535;51.098;6.414;2023-04-24T09:45:08;8.60;99.90
3051;DHT22;1535;51.098;6.414;2023-04-24T09:47:36;8.70;99.90
3051;DHT22;1535;51.098;6.414;2023-04-24T09:50:10;8.70;99.90
3051;DHT22;1535;51.098;6.414;2023-04-24T09:52:40;8.90;99.90
3051;DHT22;1535;51.098;6.414;2023-04-24T09:55:13;9.00;99.90
3051;DHT22;1535;51.098;6.414;2023-04-24T09:57:50;9.20;99.90
3051;DHT22;1535;51.098;6.414;2023-04-24T10:00:19;9.30;99.90
3051;DHT22;1535;51.098;6.414;2023-04-24T10:02:50;9.60;99.90
3051;DHT22;1535;51.098;6.414;2023-04-24T10:05:19;9.30;99.90
3051;DHT22;1535;51.098;6.414;2023-04-24T10:07:49;9.20;99.90
3051;DHT22;1535;51.098;6.414;2023-04-24T10:10:16;9.10;99.90
3051;DHT22;1535;51.098;6.414;2023-04-24T10:12:44;8.90;99.90
3051;DHT22;1535;51.098;6.414;2023-04-24T10:15:13;9.10;99.90
3051;DHT22;1535;51.098;6.414;2023-04-24T10:17:45;8.90;99.90
3051;DHT22;1535;51.098;6.414;2023-04-24T10:20:18;8.70;99.90
3051;DHT22;1535;51.098;6.414;2023-04-24T10:22:47;8.60;99.90
3051;DHT22;1535;51.098;6.414;2023-04-24T10:25:16;8.50;99.90
3051;DHT22;1535;51.098;6.414;2023-04-24T10:27:43;8.40;99.90
3051;DHT22;1535;51.098;6.414;2023-04-24T10:30:14;8.30;99.90
3051;DHT22;1535;51.098;6.414;2023-04-24T10:32:41;8.20;99.90
3051;DHT22;1535;51.098;6.414;2023-04-24T10:35:09;8.10;99.90
3051;DHT22;1535;51.098;6.414;2023-04-24T10:37:39;8.00;99.90
3051;DHT22;1535;51.098;6.414;2023-04-24T10:40:09;7.90;99.90
3051;DHT22;1535;51.098;6.414;2023-04-24T10:42:39;8.00;99.90
3051;DHT22;1535;51.098;6.414;2023-04-24T10:45:07;8.10;99.90
3051;DHT22;1535;51.098;6.414;2023-04-24T10:47:51;8.10;99.90
3051;DHT22;1535;51.098;6.414;2023-04-24T10:50:18;8.40;99.90
3051;DHT22;1535;51.098;6.414;2023-04-24T10:52:45;8.70;99.90
3051;DHT22;1535;51.098;6.414;2023-04-24T10:55:13;9.20;99.90
3051;DHT22;1535;51.098;6.414;2023-04-24T18:56:03;7.50;99.90
3051;DHT22;1535;51.098;6.414;2023-04-24T18:58:30;8.80;99.90
3051;DHT22;1535;51.098;6.414;2023-04-24T19:00:57;8.60;99.90
3051;DHT22;1535;51.098;6.414;2023-04-24T19:03:24;8.50;99.90
3051;DHT22;1535;51.098;6.414;2023-04-24T19:05:52;8.30;99.90
3051;DHT22;1535;51.098;6.414;2023-04-24T19:08:19;8.30;99.90
3051;DHT22;1535;51.098;6.414;2023-04-24T19:10:47;8.20;99.90
3051;DHT22;1535;51.098;6.414;2023-04-24T19:13:15;8.10;99.90
3051;DHT22;1535;51.098;6.414;2023-04-24T19:15:42;7.90;99.90
3051;DHT22;1535;51.098;6.414;2023-04-24T19:18:10;7.80;99.90
3051;DHT22;1535;51.098;6.414;2023-04-24T19:20:37;7.70;99.90
3051;DHT22;1535;51.098;6.414;2023-04-24T19:23:04;7.70;99.90
3051;DHT22;1535;51.098;6.414;2023-04-24T19:25:32;7.70;99.90
3051;DHT22;1535;51.098;6.414;2023-04-24T19:28:02;7.60;99.90
3051;DHT22;1535;51.098;6.414;2023-04-24T19:30:29;7.60;99.90
3051;DHT22;1535;51.098;6.414;2023-04-24T19:32:56;7.50;99.90
3051;DHT22;1535;51.098;6.414;2023-04-24T19:35:23;7.50;99.90
3051;DHT22;1535;51.098;6.414;2023-04-24T19:37:51;7.60;99.90
3051;DHT22;1535;51.098;6.414;2023-04-24T19:40:18;7.50;99.90
3051;DHT22;1535;51.098;6.414;2023-04-24T19:42:45;7.50;99.90
3051;DHT22;1535;51.098;6.414;2023-04-24T19:45:13;7.40;99.90
3051;DHT22;1535;51.098;6.414;2023-04-24T19:47:40;7.40;99.90
3051;DHT22;1535;51.098;6.414;2023-04-24T19:50:08;7.30;99.90
3051;DHT22;1535;51.098;6.414;2023-04-24T19:52:35;7.20;99.90
3051;DHT22;1535;51.098;6.414;2023-04-24T19:55:02;7.20;99.90
3051;DHT22;1535;51.098;6.414;2023-04-24T19:57:31;7.10;99.90
3051;DHT22;1535;51.098;6.414;2023-04-24T19:59:58;7.10;99.90
3051;DHT22;1535;51.098;6.414;2023-04-24T20:02:26;7.00;99.90
3051;DHT22;1535;51.098;6.414;2023-04-24T20:04:53;7.00;99.90
3051;DHT22;1535;51.098;6.414;2023-04-24T20:07:20;6.90;99.90
3051;DHT22;1535;51.098;6.414;2023-04-24T20:09:47;6.90;99.90
3051;DHT22;1535;51.098;6.414;2023-04-24T20:12:15;6.80;99.90
3051;DHT22;1535;51.098;6.414;2023-04-24T20:14:42;6.70;99.90
3051;DHT22;1535;51.098;6.414;2023-04-24T20:17:10;6.70;99.90
3051;DHT22;1535;51.098;6.414;2023-04-24T20:19:39;6.60;99.90
3051;DHT22;1535;51.098;6.414;2023-04-24T20:22:05;6.50;99.90
3051;DHT22;1535;51.098;6.414;2023-04-24T20:24:33;6.40;99.90
3051;DHT22;1535;51.098;6.414;2023-04-24T20:27:01;6.30;99.90
3051;DHT22;1535;51.098;6.414;2023-04-24T20:29:29;6.30;99.90
3051;DHT22;1535;51.098;6.414;2023-04-24T20:31:56;6.40;99.90
3051;DHT22;1535;51.098;6.414;2023-04-24T20:34:24;6.40;99.90
3051;DHT22;1535;51.098;6.414;2023-04-24T20:36:52;6.30;99.90
3051;DHT22;1535;51.098;6.414;2023-04-24T20:39:21;6.20;99.90
3051;DHT22;1535;51.098;6.414;2023-04-24T20:41:48;6.20;99.90
3051;DHT22;1535;51.098;6.414;2023-04-24T20:44:15;6.10;99.90
3051;DHT22;1535;51.098;6.414;2023-04-24T20:46:41;6.10;99.90
3051;DHT22;1535;51.098;6.414;2023-04-24T20:49:08;6.00;99.90
3051;DHT22;1535;51.098;6.414;2023-04-24T20:51:36;6.00;99.90
3051;DHT22;1535;51.098;6.414;2023-04-24T20:54:04;5.90;99.90
3051;DHT22;1535;51.098;6.414;2023-04-24T20:56:31;5.90;99.90
3051;DHT22;1535;51.098;6.414;2023-04-24T20:59:00;5.80;99.90
3051;DHT22;1535;51.098;6.414;2023-04-24T21:01:27;5.80;99.90
3051;DHT22;1535;51.098;6.414;2023-04-24T21:03:55;5.80;99.90
3051;DHT22;1535;51.098;6.414;2023-04-24T21:06:22;5.80;99.90
3051;DHT22;1535;51.098;6.414;2023-04-24T21:08:49;5.80;99.90
3051;DHT22;1535;51.098;6.414;2023-04-24T21:11:17;5.70;99.90
3051;DHT22;1535;51.098;6.414;2023-04-24T21:13:45;5.60;99.90
3051;DHT22;1535;51.098;6.414;2023-04-24T21:16:11;5.60;99.90
3051;DHT22;1535;51.098;6.414;2023-04-24T21:18:39;5.60;99.90
3051;DHT22;1535;51.098;6.414;2023-04-24T21:21:06;5.50;99.90
3051;DHT22;1535;51.098;6.414;2023-04-24T21:23:34;5.50;99.90
3051;DHT22;1535;51.098;6.414;2023-04-24T21:26:02;5.40;99.90
3051;DHT22;1535;51.098;6.414;2023-04-24T21:28:31;5.40;99.90
3051;DHT22;1535;51.098;6.414;2023-04-24T21:30:59;5.40;99.90
3051;DHT22;1535;51.098;6.414;2023-04-24T21:33:27;5.40;99.90
3051;DHT22;1535;51.098;6.414;2023-04-24T21:35:53;5.30;99.90
3051;DHT22;1535;51.098;6.414;2023-04-24T21:38:21;5.20;99.90
3051;DHT22;1535;51.098;6.414;2023-04-24T21:40:49;5.20;99.90
3051;DHT22;1535;51.098;6.414;2023-04-24T21:43:17;5.10;99.90
3051;DHT22;1535;51.098;6.414;2023-04-24T21:45:46;5.10;99.90
3051;DHT22;1535;51.098;6.414;2023-04-24T21:48:13;5.10;99.90
3051;DHT22;1535;51.098;6.414;2023-04-24T21:50:41;5.20;99.90
3051;DHT22;1535;51.098;6.414;2023-04-24T21:53:07;5.10;99.90
3051;DHT22;1535;51.098;6.414;2023-04-24T21:55:35;5.10;99.90
3051;DHT22;1535;51.098;6.414;2023-04-24T21:58:01;5.10;99.90
3051;DHT22;1535;51.098;6.414;2023-04-24T22:00:28;5.20;99.90
3051;DHT22;1535;51.098;6.414;2023-04-24T22:02:56;5.40;99.90
3051;DHT22;1535;51.098;6.414;2023-04-24T22:05:23;5.30;99.90
3051;DHT22;1535;51.098;6.414;2023-04-24T22:07:49;5.30;99.90
3051;DHT22;1535;51.098;6.414;2023-04-24T22:10:18;5.40;99.90
3051;DHT22;1535;51.098;6.414;2023-04-24T22:12:46;5.40;99.90
3051;DHT22;1535;51.098;6.414;2023-04-24T22:15:13;5.30;99.90
3051;DHT22;1535;51.098;6.414;2023-04-24T22:17:40;5.30;99.90
3051;DHT22;1535;51.098;6.414;2023-04-24T22:20:10;5.30;99.90
3051;DHT22;1535;51.098;6.414;2023-04-24T22:22:38;5.30;99.90
3051;DHT22;1535;51.098;6.414;2023-04-24T22:25:06;5.20;99.90
3051;DHT22;1535;51.098;6.414;2023-04-24T22:27:33;5.20;99.90
3051;DHT22;1535;51.098;6.414;2023-04-24T22:30:00;5.10;99.90
3051;DHT22;1535;51.098;6.414;2023-04-24T22:32:26;5.10;99.90
3051;DHT22;1535;51.098;6.414;2023-04-24T22:34:56;5.00;99.90
3051;DHT22;1535;51.098;6.414;2023-04-24T22:37:24;5.00;99.90
3051;DHT22;1535;51.098;6.414;2023-04-24T22:39:51;5.00;99.90
3051;DHT22;1535;51.098;6.414;2023-04-24T22:42:18;5.00;99.90
3051;DHT22;1535;51.098;6.414;2023-04-24T22:44:45;5.00;99.90
3051;DHT22;1535;51.098;6.414;2023-04-24T22:47:13;5.00;99.90
3051;DHT22;1535;51.098;6.414;2023-04-24T22:49:41;4.90;99.90
3051;DHT22;1535;51.098;6.414;2023-04-24T22:52:08;4.80;99.90
3051;DHT22;1535;51.098;6.414;2023-04-24T22:54:36;4.70;99.90
3051;DHT22;1535;51.098;6.414;2023-04-24T22:57:03;4.70;99.90
3051;DHT22;1535;51.098;6.414;2023-04-24T22:59:30;4.60;99.90
3051;DHT22;1535;51.098;6.414;2023-04-24T23:01:58;4.60;99.90
3051;DHT22;1535;51.098;6.414;2023-04-24T23:04:26;4.60;99.90
3051;DHT22;1535;51.098;6.414;2023-04-24T23:06:53;4.60;99.90
3051;DHT22;1535;51.098;6.414;2023-04-24T23:09:21;4.50;99.90
3051;DHT22;1535;51.098;6.414;2023-04-24T23:11:50;4.50;99.90
3051;DHT22;1535;51.098;6.414;2023-04-24T23:14:16;4.50;99.90
3051;DHT22;1535;51.098;6.414;2023-04-24T23:16:43;4.40;99.90
3051;DHT22;1535;51.098;6.414;2023-04-24T23:19:12;4.50;99.90
3051;DHT22;1535;51.098;6.414;2023-04-24T23:21:40;4.40;99.90
3051;DHT22;1535;51.098;6.414;2023-04-24T23:24:08;4.40;99.90
3051;DHT22;1535;51.098;6.414;2023-04-24T23:26:35;4.40;99.90
3051;DHT22;1535;51.098;6.414;2023-04-24T23:29:04;4.40;99.90
3051;DHT22;1535;51.098;6.414;2023-04-24T23:31:31;4.30;99.90
3051;DHT22;1535;51.098;6.414;2023-04-24T23:33:58;4.30;99.90
3051;DHT22;1535;51.098;6.414;2023-04-24T23:36:26;4.30;99.90
3051;DHT22;1535;51.098;6.414;2023-04-24T23:38:54;4.20;99.90
3051;DHT22;1535;51.098;6.414;2023-04-24T23:41:21;4.20;99.90
3051;DHT22;1535;51.098;6.414;2023-04-24T23:43:48;4.10;99.90
3051;DHT22;1535;51.098;6.414;2023-04-24T23:46:16;4.10;99.90
3051;DHT22;1535;51.098;6.414;2023-04-24T23:48:43;4.20;99.90
3051;DHT22;1535;51.098;6.414;2023-04-24T23:51:10;4.20;99.90
3051;DHT22;1535;51.098;6.414;2023-04-24T23:53:37;4.10;99.90
3051;DHT22;1535;51.098;6.414;2023-04-24T23:56:04;4.20;99.90
3051;DHT22;1535;51.098;6.414;2023-04-24T23:58:31;4.10;99.90
